Time,TemperatureF,DewpointF,PressureIn,WindDirection,WindDirectionDegrees,WindSpeedMPH,WindSpeedGustMPH,Humidity,HourlyPrecipIn,Conditions,Clouds,dailyrainin,SoftwareType,DateUTC
2013-04-11 00:00:00,59.4,59.1,29.81,South,171,0.0,3.0,99,0.00,-RA,,0.00,WeatherDisplay:10.37,2013-04-11 04:00:00,
2013-04-11 00:05:00,59.4,59.1,29.82,South,190,1.0,2.0,99,0.00,BKN,,0.00,WeatherDisplay:10.37,2013-04-11 04:05:00,
2013-04-11 00:10:00,59.4,59.1,29.82,South,173,0.0,4.0,99,0.00,BKN,,0.00,WeatherDisplay:10.37,2013-04-11 04:10:00,
2013-04-11 00:15:00,59.4,59.1,29.82,South,189,3.0,6.0,99,0.00,BKN,,0.00,WeatherDisplay:10.37,2013-04-11 04:15:00,
2013-04-11 00:20:00,59.5,59.2,29.82,South,178,1.0,6.0,99,0.00,BKN,,0.00,WeatherDisplay:10.37,2013-04-11 04:20:00,
2013-04-11 00:25:00,59.5,59.3,29.84,South,171,2.0,3.0,99,0.00,BKN,,0.00,WeatherDisplay:10.37,2013-04-11 04:25:00,
2013-04-11 00:30:00,59.5,59.3,29.83,SSW,197,1.0,2.0,99,0.00,BKN,,0.00,WeatherDisplay:10.37,2013-04-11 04:30:00,
2013-04-11 00:35:00,59.7,59.4,29.83,ENE,67,1.0,3.0,99,0.00,BKN,,0.00,WeatherDisplay:10.37,2013-04-11 04:35:00,
2013-04-11 00:40:00,59.7,59.4,29.83,ESE,114,0.0,2.0,99,0.00,BKN,,0.00,WeatherDisplay:10.37,2013-04-11 04:40:00,
2013-04-11 00:45:00,59.9,59.6,29.81,SE,138,1.0,2.0,99,0.00,BKN,,0.00,WeatherDisplay:10.37,2013-04-11 04:45:00,
2013-04-11 00:50:00,59.9,59.6,29.82,SE,142,1.0,2.0,99,0.00,BKN,,0.00,WeatherDisplay:10.37,2013-04-11 04:50:00,
2013-04-11 00:55:00,59.9,59.6,29.82,SSE,156,0.0,3.0,99,0.00,-RA,,0.00,WeatherDisplay:10.37,2013-04-11 04:55:00,
2013-04-11 01:00:00,59.9,59.6,29.82,SE,131,1.0,2.0,99,0.00,-RA,,0.00,WeatherDisplay:10.37,2013-04-11 05:00:00,
2013-04-11 01:05:00,59.9,59.6,29.81,East,84,1.0,2.0,99,0.00,-RA,,0.00,WeatherDisplay:10.37,2013-04-11 05:05:00,
2013-04-11 01:10:00,60.0,59.7,29.82,NE,49,1.0,2.0,99,0.00,-RA,,0.00,WeatherDisplay:10.37,2013-04-11 05:10:00,
2013-04-11 01:15:00,59.9,59.6,29.82,NE,49,1.0,2.0,99,0.00,OVC,,0.00,WeatherDisplay:10.37,2013-04-11 05:15:00,
2013-04-11 01:20:00,60.1,59.8,29.82,North,8,0.0,2.0,99,0.00,OVC,,0.00,WeatherDisplay:10.37,2013-04-11 05:20:00,
2013-04-11 01:25:00,60.1,59.8,29.81,NNW,345,1.0,2.0,99,0.00,OVC,,0.00,WeatherDisplay:10.37,2013-04-11 05:25:00,
2013-04-11 01:30:00,60.1,59.8,29.81,ENE,74,1.0,2.0,99,0.00,OVC,,0.00,WeatherDisplay:10.37,2013-04-11 05:30:00,
2013-04-11 01:40:00,60.1,59.8,29.81,SSE,149,1.0,2.0,99,0.00,SN,,0.00,WeatherDisplay:10.37,2013-04-11 05:40:00,
2013-04-11 01:45:00,60.1,59.8,29.82,SE,132,0.0,2.0,99,0.00,OVC,,0.00,WeatherDisplay:10.37,2013-04-11 05:45:00,
2013-04-11 01:50:00,60.1,59.8,29.82,SE,125,0.0,2.0,99,0.00,OVC,,0.00,WeatherDisplay:10.37,2013-04-11 05:50:00,
2013-04-11 01:55:00,60.3,60.0,29.81,East,91,1.0,4.0,99,0.00,OVC,,0.00,WeatherDisplay:10.37,2013-04-11 05:55:00,
2013-04-11 02:00:00,60.3,60.0,29.80,ESE,102,0.0,3.0,99,0.00,OVC,,0.00,WeatherDisplay:10.37,2013-04-11 06:00:00,
2013-04-11 02:10:00,60.3,60.0,29.78,SSE,154,1.0,3.0,99,0.00,OVC,,0.00,WeatherDisplay:10.37,2013-04-11 06:10:00,
2013-04-11 02:15:00,60.3,60.0,29.75,East,91,1.0,3.0,99,0.00,OVC,,0.00,WeatherDisplay:10.37,2013-04-11 06:15:00,
2013-04-11 02:20:00,60.1,59.8,29.75,East,82,1.0,3.0,99,0.00,OVC,,0.00,WeatherDisplay:10.37,2013-04-11 06:20:00,
2013-04-11 02:25:00,60.1,59.8,29.75,WNW,303,1.0,2.0,99,0.00,OVC,,0.00,WeatherDisplay:10.37,2013-04-11 06:25:00,
2013-04-11 02:30:00,60.1,59.8,29.74,NNE,13,1.0,3.0,99,0.00,OVC,,0.00,WeatherDisplay:10.37,2013-04-11 06:30:00,
2013-04-11 02:35:00,60.1,59.8,29.74,NNE,30,1.0,2.0,99,0.00,BKN,,0.00,WeatherDisplay:10.37,2013-04-11 06:35:00,
2013-04-11 02:40:00,60.1,59.8,29.74,North,355,1.0,2.0,99,0.00,BKN,,0.00,WeatherDisplay:10.37,2013-04-11 06:40:00,
2013-04-11 02:45:00,60.1,59.8,29.74,WNW,303,0.0,2.0,99,0.00,BKN,,0.00,WeatherDisplay:10.37,2013-04-11 06:45:00,
2013-04-11 02:50:00,60.1,59.8,29.74,West,273,0.0,1.0,99,0.00,BKN,,0.00,WeatherDisplay:10.37,2013-04-11 06:50:00,
2013-04-11 02:55:00,60.0,59.7,29.75,West,260,1.0,2.0,99,0.00,BKN,,0.00,WeatherDisplay:10.37,2013-04-11 06:55:00,
2013-04-11 03:00:00,59.9,59.6,29.76,West,264,0.0,2.0,99,0.00,BKN,,0.00,WeatherDisplay:10.37,2013-04-11 07:00:00,
2013-04-11 03:05:00,59.9,59.6,29.76,West,270,0.0,1.0,99,0.00,OVC,,0.00,WeatherDisplay:10.37,2013-04-11 07:05:00,
2013-04-11 03:10:00,59.9,59.6,29.76,West,271,1.0,2.0,99,0.00,OVC,,0.00,WeatherDisplay:10.37,2013-04-11 07:10:00,
2013-04-11 03:15:00,59.9,59.6,29.77,WNW,287,1.0,2.0,99,0.00,OVC,,0.00,WeatherDisplay:10.37,2013-04-11 07:15:00,
2013-04-11 07:25:00,58.3,56.9,29.86,NNW,336,2.0,6.0,95,0.00,OVC,,0.00,WeatherDisplay:10.37,2013-04-11 11:25:00,
2013-04-11 07:30:00,58.5,57.0,29.86,NNW,345,3.0,6.0,95,0.00,OVC,,0.00,WeatherDisplay:10.37,2013-04-11 11:30:00,
2013-04-11 07:35:00,58.6,57.1,29.87,North,353,3.0,6.0,95,0.00,OVC,,0.00,WeatherDisplay:10.37,2013-04-11 11:35:00,
2013-04-11 07:41:00,58.6,56.9,29.86,North,354,2.0,5.0,94,0.00,OVC,,0.00,WeatherDisplay:10.37,2013-04-11 11:41:00,
2013-04-11 07:46:00,58.8,57.1,29.86,North,4,0.0,3.0,94,0.00,OVC,,0.00,WeatherDisplay:10.37,2013-04-11 11:46:00,
2013-04-11 07:51:00,59.0,57.0,29.86,North,1,1.0,3.0,93,0.00,OVC,,0.00,WeatherDisplay:10.37,2013-04-11 11:51:00,
2013-04-11 07:56:00,59.0,57.0,29.86,North,353,0.0,5.0,93,0.00,OVC,,0.00,WeatherDisplay:10.37,2013-04-11 11:56:00,
2013-04-11 08:01:00,59.0,57.0,29.86,NNE,26,1.0,3.0,93,0.00,OVC,,0.00,WeatherDisplay:10.37,2013-04-11 12:01:00,
2013-04-11 08:06:00,59.2,56.9,29.86,NNE,28,1.0,4.0,92,0.00,OVC,,0.00,WeatherDisplay:10.37,2013-04-11 12:06:00,
2013-04-11 08:11:00,59.3,57.0,29.86,NNE,22,1.0,5.0,92,0.00,OVC,,0.00,WeatherDisplay:10.37,2013-04-11 12:11:00,
2013-04-11 08:16:00,59.4,57.1,29.86,NNE,32,2.0,7.0,92,0.00,OVC,,0.00,WeatherDisplay:10.37,2013-04-11 12:16:00,
2013-04-11 08:21:00,59.7,57.4,29.86,NNE,32,2.0,8.0,92,0.00,OVC,,0.00,WeatherDisplay:10.37,2013-04-11 12:21:00,
2013-04-11 08:31:00,60.3,58.2,29.86,NE,46,3.0,7.0,93,0.00,OVC,,0.00,WeatherDisplay:10.37,2013-04-11 12:31:00,
2013-04-11 08:46:00,60.4,58.1,29.86,North,11,1.0,5.0,92,0.00,OVC,,0.00,WeatherDisplay:10.37,2013-04-11 12:46:00,
2013-04-11 08:51:00,60.4,58.1,29.86,NE,36,1.0,6.0,92,0.00,OVC,,0.00,WeatherDisplay:10.37,2013-04-11 12:51:00,
2013-04-11 08:56:00,60.3,57.9,29.87,NNE,13,6.0,9.0,92,0.00,OVC,,0.00,WeatherDisplay:10.37,2013-04-11 12:56:00,
2013-04-11 09:01:00,60.3,57.6,29.87,North,9,3.0,6.0,91,0.00,OVC,,0.00,WeatherDisplay:10.37,2013-04-11 13:01:00,
2013-04-11 09:16:00,59.4,56.4,29.88,NE,44,3.0,9.0,90,0.00,BKN,,0.00,WeatherDisplay:10.37,2013-04-11 13:16:00,
2013-04-11 09:21:00,58.8,55.8,29.89,NE,36,6.0,8.0,90,0.00,BKN,,0.00,WeatherDisplay:10.37,2013-04-11 13:21:00,
2013-04-11 09:30:00,57.9,55.0,29.89,ENE,59,6.0,8.0,90,0.00,OVC,,0.00,WeatherDisplay:10.37,2013-04-11 13:30:00,
2013-04-11 09:35:00,57.6,54.3,29.89,NE,52,5.0,8.0,89,0.00,OVC,,0.00,WeatherDisplay:10.37,2013-04-11 13:35:00,
2013-04-11 09:40:00,57.0,54.1,29.89,NE,51,6.0,12.0,90,0.00,OVC,,0.00,WeatherDisplay:10.37,2013-04-11 13:40:00,
2013-04-11 09:45:00,56.8,53.9,29.90,NE,40,7.0,11.0,90,0.00,OVC,,0.00,WeatherDisplay:10.37,2013-04-11 13:45:00,
2013-04-11 09:50:00,56.5,53.6,29.90,NNE,26,5.0,8.0,90,0.00,OVC,,0.00,WeatherDisplay:10.37,2013-04-11 13:50:00,
2013-04-11 09:55:00,56.3,53.4,29.90,NNE,24,5.0,9.0,90,0.00,OVC,,0.00,WeatherDisplay:10.37,2013-04-11 13:55:00,
2013-04-11 10:05:00,56.1,53.2,29.91,NE,47,6.0,9.0,90,0.00,OVC,,0.00,WeatherDisplay:10.37,2013-04-11 14:05:00,
2013-04-11 10:10:00,55.9,52.7,29.91,NE,42,5.0,8.0,89,0.00,OVC,,0.00,WeatherDisplay:10.37,2013-04-11 14:10:00,
2013-04-11 10:15:00,55.8,52.6,29.91,NE,56,8.0,10.0,89,0.00,OVC,,0.00,WeatherDisplay:10.37,2013-04-11 14:15:00,
2013-04-11 10:20:00,55.6,52.4,29.91,NE,52,5.0,12.0,89,0.00,OVC,,0.00,WeatherDisplay:10.37,2013-04-11 14:20:00,
2013-04-11 10:25:00,55.6,52.4,29.91,NE,42,5.0,9.0,89,0.00,OVC,,0.00,WeatherDisplay:10.37,2013-04-11 14:25:00,
2013-04-11 10:30:00,55.6,52.4,29.91,NE,37,7.0,11.0,89,0.00,OVC,,0.00,WeatherDisplay:10.37,2013-04-11 14:30:00,
2013-04-11 10:35:00,55.6,52.1,29.91,NE,54,6.0,11.0,88,0.00,OVC,,0.00,WeatherDisplay:10.37,2013-04-11 14:35:00,
2013-04-11 10:40:00,55.6,52.1,29.91,NE,41,3.0,10.0,88,0.00,OVC,,0.00,WeatherDisplay:10.37,2013-04-11 14:40:00,
2013-04-11 10:45:00,55.8,52.3,29.91,North,10,3.0,8.0,88,0.00,OVC,,0.00,WeatherDisplay:10.37,2013-04-11 14:45:00,
2013-04-11 10:50:00,55.9,52.4,29.91,North,8,3.0,7.0,88,0.00,OVC,,0.00,WeatherDisplay:10.37,2013-04-11 14:50:00,
2013-04-11 10:55:00,56.1,52.6,29.91,NE,49,3.0,12.0,88,0.00,OVC,,0.00,WeatherDisplay:10.37,2013-04-11 14:55:00,
2013-04-11 11:00:00,56.5,52.7,29.91,NE,41,3.0,9.0,87,0.00,OVC,,0.00,WeatherDisplay:10.37,2013-04-11 15:00:00,
2013-04-11 11:05:00,56.7,52.8,29.91,NNE,30,5.0,8.0,87,0.00,OVC,,0.00,WeatherDisplay:10.37,2013-04-11 15:05:00,
2013-04-11 11:10:00,56.7,52.5,29.91,NE,38,3.0,11.0,86,0.00,OVC,,0.00,WeatherDisplay:10.37,2013-04-11 15:10:00,
2013-04-11 11:15:00,56.8,52.7,29.91,NE,46,7.0,11.0,86,0.00,OVC,,0.00,WeatherDisplay:10.37,2013-04-11 15:15:00,
2013-04-11 11:20:00,57.0,52.9,29.91,NE,55,5.0,8.0,86,0.00,OVC,,0.00,WeatherDisplay:10.37,2013-04-11 15:20:00,
2013-04-11 11:25:00,57.0,52.6,29.91,ENE,74,5.0,8.0,85,0.00,OVC,,0.00,WeatherDisplay:10.37,2013-04-11 15:25:00,
2013-04-11 11:30:00,57.1,52.6,29.92,ENE,67,3.0,8.0,85,0.00,OVC,,0.00,WeatherDisplay:10.37,2013-04-11 15:30:00,
2013-04-11 11:35:00,57.5,52.7,29.92,ENE,59,3.0,9.0,84,0.00,OVC,,0.00,WeatherDisplay:10.37,2013-04-11 15:35:00,
2013-04-11 11:40:00,57.7,52.9,29.92,NE,53,3.0,6.0,84,0.00,OVC,,0.00,WeatherDisplay:10.37,2013-04-11 15:40:00,
2013-04-11 11:45:00,58.0,52.8,29.92,NE,34,2.0,6.0,83,0.00,OVC,,0.00,WeatherDisplay:10.37,2013-04-11 15:45:00,
2013-04-11 11:50:00,58.3,53.1,29.92,NNW,347,5.0,8.0,83,0.00,OVC,,0.00,WeatherDisplay:10.37,2013-04-11 15:50:00,
2013-04-11 11:56:00,58.3,52.8,29.92,North,1,3.0,9.0,82,0.00,OVC,,0.00,WeatherDisplay:10.37,2013-04-11 15:56:00,
2013-04-11 12:01:00,58.5,52.6,29.92,NE,45,5.0,9.0,81,0.00,OVC,,0.00,WeatherDisplay:10.37,2013-04-11 16:01:00,
2013-04-11 12:06:00,58.5,52.7,29.92,NE,54,1.0,8.0,81,0.00,OVC,,0.00,WeatherDisplay:10.37,2013-04-11 16:06:00,
2013-04-11 12:11:00,59.0,53.2,29.91,NNE,25,2.0,5.0,81,0.00,OVC,,0.00,WeatherDisplay:10.37,2013-04-11 16:11:00,
2013-04-11 12:16:00,59.2,52.7,29.91,North,8,2.0,8.0,79,0.00,OVC,,0.00,WeatherDisplay:10.37,2013-04-11 16:16:00,
2013-04-11 12:21:00,59.4,52.8,29.92,North,3,3.0,7.0,79,0.00,OVC,,0.00,WeatherDisplay:10.37,2013-04-11 16:21:00,
2013-04-11 12:31:00,59.7,52.8,29.92,NE,34,2.0,6.0,78,0.00,OVC,,0.00,WeatherDisplay:10.37,2013-04-11 16:31:00,
2013-04-11 12:40:00,59.7,52.8,29.92,NNE,26,3.0,6.0,78,0.00,OVC,,0.00,WeatherDisplay:10.37,2013-04-11 16:40:00,
2013-04-11 12:45:00,59.7,52.5,29.92,NE,39,2.0,6.0,77,0.00,OVC,,0.00,WeatherDisplay:10.37,2013-04-11 16:45:00,
2013-04-11 12:50:00,59.7,52.8,29.92,NNE,26,2.0,7.0,78,0.00,OVC,,0.00,WeatherDisplay:10.37,2013-04-11 16:50:00,
2013-04-11 12:55:00,59.7,52.8,29.92,North,9,3.0,7.0,78,0.00,OVC,,0.00,WeatherDisplay:10.37,2013-04-11 16:55:00,
2013-04-11 13:00:00,59.9,53.0,29.92,NNE,12,1.0,5.0,78,0.00,OVC,,0.00,WeatherDisplay:10.37,2013-04-11 17:00:00,
2013-04-11 13:05:00,59.9,53.0,29.92,NNE,29,2.0,5.0,78,0.00,OVC,,0.00,WeatherDisplay:10.37,2013-04-11 17:05:00,
2013-04-11 13:10:00,60.1,52.8,29.91,North,358,2.0,6.0,77,0.00,OVC,,0.00,WeatherDisplay:10.37,2013-04-11 17:10:00,
2013-04-11 13:15:00,60.1,52.8,29.91,North,10,1.0,6.0,77,0.00,OVC,,0.00,WeatherDisplay:10.37,2013-04-11 17:15:00,
2013-04-11 13:20:00,60.3,53.0,29.91,NNE,12,3.0,6.0,77,0.00,OVC,,0.00,WeatherDisplay:10.37,2013-04-11 17:20:00,
2013-04-11 13:25:00,60.3,53.0,29.91,NNE,22,1.0,6.0,77,0.00,OVC,,0.00,WeatherDisplay:10.37,2013-04-11 17:25:00,
2013-04-11 13:30:00,60.4,53.2,29.92,NNE,20,2.0,5.0,77,0.00,OVC,,0.00,WeatherDisplay:10.37,2013-04-11 17:30:00,
2013-04-11 13:35:00,60.4,52.8,29.92,NNE,17,3.0,6.0,76,0.00,OVC,,0.00,WeatherDisplay:10.37,2013-04-11 17:35:00,
2013-04-11 13:40:00,60.4,52.8,29.92,NNE,28,3.0,6.0,76,0.00,OVC,,0.00,WeatherDisplay:10.37,2013-04-11 17:40:00,
2013-04-11 13:45:00,60.3,52.4,29.91,NE,50,2.0,6.0,75,0.00,OVC,,0.00,WeatherDisplay:10.37,2013-04-11 17:45:00,
2013-04-11 13:50:00,60.4,52.4,29.91,NE,39,3.0,7.0,75,0.00,OVC,,0.00,WeatherDisplay:10.37,2013-04-11 17:50:00,
2013-04-11 13:55:00,60.3,52.3,29.91,NE,41,2.0,7.0,75,0.00,OVC,,0.00,WeatherDisplay:10.37,2013-04-11 17:55:00,
2013-04-11 14:00:00,60.4,52.5,29.91,NE,45,2.0,6.0,75,0.00,OVC,,0.00,WeatherDisplay:10.37,2013-04-11 18:00:00,
2013-04-11 14:05:00,60.4,52.5,29.91,NNE,22,2.0,5.0,75,0.00,OVC,,0.00,WeatherDisplay:10.37,2013-04-11 18:05:00,
2013-04-11 14:11:00,60.8,52.5,29.91,NNE,18,5.0,6.0,74,0.00,OVC,,0.00,WeatherDisplay:10.37,2013-04-11 18:11:00,
2013-04-11 14:16:00,60.8,52.1,29.90,NNE,19,3.0,6.0,73,0.00,OVC,,0.00,WeatherDisplay:10.37,2013-04-11 18:16:00,
2013-04-11 14:31:00,61.3,52.2,29.90,NE,36,2.0,8.0,72,0.00,OVC,,0.00,WeatherDisplay:10.37,2013-04-11 18:31:00,
2013-04-11 14:41:00,61.3,52.2,29.90,North,4,3.0,6.0,72,0.00,OVC,,0.00,WeatherDisplay:10.37,2013-04-11 18:41:00,
2013-04-11 14:46:00,61.2,52.1,29.90,NE,37,3.0,7.0,72,0.00,OVC,,0.00,WeatherDisplay:10.37,2013-04-11 18:46:00,
2013-04-11 14:56:00,61.0,51.9,29.90,NE,36,3.0,6.0,72,0.00,OVC,,0.00,WeatherDisplay:10.37,2013-04-11 18:56:00,
2013-04-11 15:11:00,60.8,51.7,29.90,NNE,21,3.0,8.0,72,0.00,OVC,,0.00,WeatherDisplay:10.37,2013-04-11 19:11:00,
2013-04-11 15:21:00,60.8,51.7,29.89,NE,40,2.0,7.0,72,0.00,OVC,,0.00,WeatherDisplay:10.37,2013-04-11 19:21:00,
2013-04-11 15:30:00,60.8,51.3,29.89,ENE,59,2.0,11.0,71,0.00,OVC,,0.00,WeatherDisplay:10.37,2013-04-11 19:30:00,
2013-04-11 15:35:00,60.8,51.7,29.89,NNE,25,2.0,6.0,72,0.00,OVC,,0.00,WeatherDisplay:10.37,2013-04-11 19:35:00,
2013-04-11 15:40:00,60.8,51.7,29.89,NNE,18,3.0,8.0,72,0.00,OVC,,0.00,WeatherDisplay:10.37,2013-04-11 19:40:00,
2013-04-11 15:45:00,60.8,51.7,29.89,NNE,28,3.0,8.0,72,0.00,OVC,,0.00,WeatherDisplay:10.37,2013-04-11 19:45:00,
2013-04-11 15:50:00,60.8,51.7,29.89,ENE,60,5.0,9.0,72,0.00,OVC,,0.00,WeatherDisplay:10.37,2013-04-11 19:50:00,
2013-04-11 15:55:00,60.8,51.7,29.89,ENE,71,3.0,8.0,72,0.00,OVC,,0.00,WeatherDisplay:10.37,2013-04-11 19:55:00,
2013-04-11 16:00:00,60.8,51.7,29.88,ENE,70,5.0,9.0,72,0.00,OVC,,0.00,WeatherDisplay:10.37,2013-04-11 20:00:00,
2013-04-11 16:05:00,60.8,51.7,29.88,ENE,69,2.0,6.0,72,0.00,OVC,,0.00,WeatherDisplay:10.37,2013-04-11 20:05:00,
2013-04-11 16:10:00,61.0,51.9,29.88,ENE,75,2.0,7.0,72,0.00,OVC,,0.00,WeatherDisplay:10.37,2013-04-11 20:10:00,
2013-04-11 16:15:00,60.8,51.7,29.88,ENE,64,3.0,6.0,72,0.00,OVC,,0.00,WeatherDisplay:10.37,2013-04-11 20:15:00,
2013-04-11 16:20:00,60.8,51.7,29.88,ENE,73,2.0,8.0,72,0.00,OVC,,0.00,WeatherDisplay:10.37,2013-04-11 20:20:00,
2013-04-11 16:25:00,60.8,51.7,29.88,ENE,76,2.0,6.0,72,0.00,OVC,,0.00,WeatherDisplay:10.37,2013-04-11 20:25:00,
2013-04-11 16:30:00,60.8,52.1,29.88,ENE,61,3.0,8.0,73,0.00,OVC,,0.00,WeatherDisplay:10.37,2013-04-11 20:30:00,
2013-04-11 16:40:00,60.8,52.1,29.88,ENE,73,5.0,8.0,73,0.00,OVC,,0.00,WeatherDisplay:10.37,2013-04-11 20:40:00,
2013-04-11 16:45:00,60.6,52.3,29.89,ENE,65,2.0,8.0,74,0.00,OVC,,0.00,WeatherDisplay:10.37,2013-04-11 20:45:00,
2013-04-11 16:50:00,60.6,52.3,29.88,East,79,3.0,6.0,74,0.00,OVC,,0.00,WeatherDisplay:10.37,2013-04-11 20:50:00,
2013-04-11 16:55:00,60.5,51.8,29.88,East,98,2.0,8.0,73,0.00,OVC,,0.00,WeatherDisplay:10.37,2013-04-11 20:55:00,
2013-04-11 17:01:00,60.4,51.7,29.89,East,100,3.0,8.0,73,0.00,OVC,,0.00,WeatherDisplay:10.37,2013-04-11 21:01:00,
2013-04-11 17:11:00,59.9,51.6,29.89,ESE,113,2.0,7.0,74,0.00,OVC,,0.00,WeatherDisplay:10.37,2013-04-11 21:11:00,
2013-04-11 17:16:00,59.5,51.6,29.90,ESE,107,3.0,6.0,75,0.00,OVC,,0.00,WeatherDisplay:10.37,2013-04-11 21:16:00,
2013-04-11 17:21:00,59.0,51.1,29.90,East,80,5.0,9.0,75,0.00,OVC,,0.00,WeatherDisplay:10.37,2013-04-11 21:21:00,
2013-04-11 17:26:00,58.3,50.7,29.90,East,96,3.0,10.0,76,0.00,OVC,,0.00,WeatherDisplay:10.37,2013-04-11 21:26:00,
2013-04-11 17:31:00,57.6,50.5,29.91,ESE,102,2.0,8.0,77,0.00,OVC,,0.00,WeatherDisplay:10.37,2013-04-11 21:31:00,
2013-04-11 17:36:00,57.0,50.5,29.91,East,89,5.0,8.0,79,0.00,OVC,,0.00,WeatherDisplay:10.37,2013-04-11 21:36:00,
2013-04-11 17:46:00,55.8,50.1,29.91,ESE,103,6.0,9.0,81,0.00,OVC,,0.00,WeatherDisplay:10.37,2013-04-11 21:46:00,
2013-04-11 17:56:00,55.0,49.6,29.92,East,85,6.0,10.0,82,0.00,OVC,,0.00,WeatherDisplay:10.37,2013-04-11 21:56:00,
2013-04-11 18:16:00,53.6,48.9,29.92,East,83,5.0,12.0,84,0.00,OVC,,0.00,WeatherDisplay:10.37,2013-04-11 22:16:00,
2013-04-11 18:21:00,53.1,48.7,29.93,East,81,5.0,12.0,85,0.00,OVC,,0.00,WeatherDisplay:10.37,2013-04-11 22:21:00,
2013-04-11 18:26:00,52.7,48.3,29.93,East,82,9.0,13.0,85,0.00,OVC,,0.00,WeatherDisplay:10.37,2013-04-11 22:26:00,
2013-04-11 18:35:00,52.2,48.1,29.93,ESE,110,5.0,13.0,86,0.00,OVC,,0.00,WeatherDisplay:10.37,2013-04-11 22:35:00,
2013-04-11 18:40:00,51.8,47.7,29.93,East,101,5.0,10.0,86,0.00,OVC,,0.00,WeatherDisplay:10.37,2013-04-11 22:40:00,
2013-04-11 18:45:00,51.6,47.9,29.93,ENE,76,6.0,13.0,87,0.00,OVC,,0.00,WeatherDisplay:10.37,2013-04-11 22:45:00,
2013-04-11 18:50:00,51.4,48.0,29.93,ENE,77,6.0,12.0,88,0.00,OVC,,0.00,WeatherDisplay:10.37,2013-04-11 22:50:00,
2013-04-11 18:55:00,51.2,47.8,29.93,East,89,6.0,10.0,88,0.00,OVC,,0.00,WeatherDisplay:10.37,2013-04-11 22:55:00,
2013-04-11 19:00:00,51.0,47.5,29.93,ESE,118,5.0,13.0,88,0.00,OVC,,0.00,WeatherDisplay:10.37,2013-04-11 23:00:00,
2013-04-11 19:05:00,50.7,47.6,29.93,East,101,5.0,15.0,89,0.00,OVC,,0.00,WeatherDisplay:10.37,2013-04-11 23:05:00,
2013-04-11 19:10:00,50.4,47.2,29.93,East,91,6.0,10.0,89,0.00,OVC,,0.00,WeatherDisplay:10.37,2013-04-11 23:10:00,
2013-04-11 19:15:00,50.2,47.1,29.93,East,98,5.0,12.0,89,0.00,OVC,,0.00,WeatherDisplay:10.37,2013-04-11 23:15:00,
2013-04-11 19:20:00,50.0,47.2,29.93,East,101,6.0,11.0,90,0.00,OVC,,0.00,WeatherDisplay:10.37,2013-04-11 23:20:00,
2013-04-11 19:25:00,49.8,47.3,29.93,East,81,3.0,9.0,91,0.00,OVC,,0.00,WeatherDisplay:10.37,2013-04-11 23:25:00,
2013-04-11 19:30:00,49.6,47.4,29.93,ENE,65,5.0,10.0,92,0.00,OVC,,0.00,WeatherDisplay:10.37,2013-04-11 23:30:00,
2013-04-11 19:35:00,49.5,47.2,29.93,East,97,5.0,10.0,92,0.00,OVC,,0.00,WeatherDisplay:10.37,2013-04-11 23:35:00,
2013-04-11 19:40:00,49.3,47.3,29.94,East,94,6.0,8.0,93,0.00,OVC,,0.00,WeatherDisplay:10.37,2013-04-11 23:40:00,
2013-04-11 19:45:00,49.3,47.3,29.94,East,84,3.0,12.0,93,0.00,OVC,,0.00,WeatherDisplay:10.37,2013-04-11 23:45:00,
2013-04-11 19:55:00,49.3,47.1,29.95,East,89,5.0,10.0,92,0.00,OVC,,0.00,WeatherDisplay:10.37,2013-04-11 23:55:00,
2013-04-11 20:01:00,49.1,46.6,29.94,ENE,78,5.0,9.0,91,0.00,OVC,,0.00,WeatherDisplay:10.37,2013-04-12 00:01:00,
2013-04-11 20:06:00,49.1,46.6,29.94,ENE,57,6.0,9.0,91,0.00,OVC,,0.00,WeatherDisplay:10.37,2013-04-12 00:06:00,
2013-04-11 20:11:00,49.1,46.3,29.94,East,80,6.0,13.0,90,0.00,OVC,,0.00,WeatherDisplay:10.37,2013-04-12 00:11:00,
2013-04-11 20:16:00,49.1,46.3,29.95,East,87,5.0,12.0,90,0.00,OVC,,0.00,WeatherDisplay:10.37,2013-04-12 00:16:00,
2013-04-11 20:21:00,49.1,46.3,29.94,East,93,6.0,13.0,90,0.00,OVC,,0.00,WeatherDisplay:10.37,2013-04-12 00:21:00,
2013-04-11 20:26:00,48.9,46.1,29.93,East,80,5.0,11.0,90,0.00,OVC,,0.00,WeatherDisplay:10.37,2013-04-12 00:26:00,
2013-04-11 20:51:00,48.7,45.6,29.94,East,90,6.0,11.0,89,0.00,OVC,,0.00,WeatherDisplay:10.37,2013-04-12 00:51:00,
2013-04-11 20:56:00,48.7,45.6,29.94,ENE,59,7.0,13.0,89,0.00,OVC,,0.00,WeatherDisplay:10.37,2013-04-12 00:56:00,
2013-04-11 21:16:00,48.7,45.6,29.95,East,79,3.0,12.0,89,0.00,OVC,,0.00,WeatherDisplay:10.37,2013-04-12 01:16:00,
2013-04-11 21:26:00,48.7,45.3,29.96,ENE,69,2.0,6.0,88,0.00,OVC,,0.00,WeatherDisplay:10.37,2013-04-12 01:26:00,
2013-04-11 21:35:00,48.7,45.3,29.96,ENE,59,3.0,8.0,88,0.00,OVC,,0.00,WeatherDisplay:10.37,2013-04-12 01:35:00,
2013-04-11 21:40:00,48.6,45.2,29.96,ENE,65,6.0,8.0,88,0.00,OVC,,0.00,WeatherDisplay:10.37,2013-04-12 01:40:00,
2013-04-11 21:45:00,48.6,45.2,29.96,ENE,64,5.0,9.0,88,0.00,OVC,,0.00,WeatherDisplay:10.37,2013-04-12 01:45:00,
2013-04-11 21:50:00,48.6,44.9,29.96,East,81,6.0,10.0,87,0.00,OVC,,0.00,WeatherDisplay:10.37,2013-04-12 01:50:00,
2013-04-11 21:55:00,48.4,44.7,29.96,ENE,57,5.0,13.0,87,0.00,OVC,,0.00,WeatherDisplay:10.37,2013-04-12 01:55:00,
2013-04-11 22:00:00,48.4,44.7,29.96,NE,44,7.0,12.0,87,0.00,OVC,,0.00,WeatherDisplay:10.37,2013-04-12 02:00:00,
2013-04-11 22:05:00,48.4,44.7,29.97,NE,52,3.0,10.0,87,0.00,OVC,,0.00,WeatherDisplay:10.37,2013-04-12 02:05:00,
2013-04-11 22:10:00,48.4,44.7,29.97,ENE,60,3.0,8.0,87,0.00,OVC,,0.00,WeatherDisplay:10.37,2013-04-12 02:10:00,
2013-04-11 22:15:00,48.6,44.9,29.97,ENE,61,2.0,7.0,87,0.00,OVC,,0.00,WeatherDisplay:10.37,2013-04-12 02:15:00,
2013-04-11 22:20:00,48.6,44.9,29.97,ENE,68,5.0,9.0,87,0.00,OVC,,0.00,WeatherDisplay:10.37,2013-04-12 02:20:00,
2013-04-11 22:25:00,48.6,44.9,29.97,ENE,69,6.0,13.0,87,0.00,OVC,,0.00,WeatherDisplay:10.37,2013-04-12 02:25:00,
2013-04-11 22:30:00,48.6,44.6,29.96,ENE,61,3.0,11.0,86,0.00,OVC,,0.00,WeatherDisplay:10.37,2013-04-12 02:30:00,
2013-04-11 22:35:00,48.6,44.6,29.96,NE,50,5.0,8.0,86,0.00,OVC,,0.00,WeatherDisplay:10.37,2013-04-12 02:35:00,
2013-04-11 22:40:00,48.6,44.6,29.96,NE,43,6.0,8.0,86,0.00,OVC,,0.00,WeatherDisplay:10.37,2013-04-12 02:40:00,
2013-04-11 22:45:00,48.6,44.6,29.97,ENE,59,6.0,11.0,86,0.00,OVC,,0.00,WeatherDisplay:10.37,2013-04-12 02:45:00,
2013-04-11 22:50:00,48.6,44.6,29.97,ENE,72,5.0,8.0,86,0.00,OVC,,0.00,WeatherDisplay:10.37,2013-04-12 02:50:00,
2013-04-11 22:55:00,48.6,44.3,29.97,NE,54,3.0,9.0,85,0.00,OVC,,0.00,WeatherDisplay:10.37,2013-04-12 02:55:00,
2013-04-11 23:00:00,48.6,44.3,29.96,NE,54,3.0,8.0,85,0.00,OVC,,0.00,WeatherDisplay:10.37,2013-04-12 03:00:00,
2013-04-11 23:06:00,48.6,44.3,29.97,ENE,71,3.0,11.0,85,0.00,OVC,,0.00,WeatherDisplay:10.37,2013-04-12 03:06:00,
2013-04-11 23:11:00,48.6,44.3,29.96,ENE,71,7.0,11.0,85,0.00,OVC,,0.00,WeatherDisplay:10.37,2013-04-12 03:11:00,
2013-04-11 23:16:00,48.6,44.3,29.96,ENE,69,6.0,15.0,85,0.00,OVC,,0.00,WeatherDisplay:10.37,2013-04-12 03:16:00,
2013-04-11 23:41:00,48.7,44.1,29.95,East,81,2.0,8.0,84,0.00,OVC,,0.00,WeatherDisplay:10.37,2013-04-12 03:41:00,
2013-04-11 23:46:00,48.7,44.1,29.95,ENE,64,6.0,10.0,84,0.00,OVC,,0.00,WeatherDisplay:10.37,2013-04-12 03:46:00,
2013-04-11 23:51:00,48.2,43.6,29.97,ENE,57,6.0,13.0,84,0.00,OVC,,0.00,WeatherDisplay:10.37,2013-04-12 03:51:00,